sensor_id;sensor_type;location;lat;lon;timestamp;P1;durP1;ratioP1;P2;durP2;ratioP2
17052;SDS011;8643;48.824;11.422;2023-07-13T00:01:24;8.05;;;5.03;;
17052;SDS011;8643;48.824;11.422;2023-07-13T00:03:53;8.20;;;5.25;;
17052;SDS011;8643;48.824;11.422;2023-07-13T00:06:23;7.18;;;5.07;;
17052;SDS011;8643;48.824;11.422;2023-07-13T00:08:52;11.15;;;5.35;;
17052;SDS011;8643;48.824;11.422;2023-07-13T00:11:21;9.23;;;5.78;;
17052;SDS011;8643;48.824;11.422;2023-07-13T00:13:50;9.73;;;6.00;;
17052;SDS011;8643;48.824;11.422;2023-07-13T00:16:19;11.13;;;6.68;;
17052;SDS011;8643;48.824;11.422;2023-07-13T00:18:50;13.45;;;7.30;;
17052;SDS011;8643;48.824;11.422;2023-07-13T00:21:19;9.15;;;6.35;;
17052;SDS011;8643;48.824;11.422;2023-07-13T00:23:48;17.10;;;7.38;;
17052;SDS011;8643;48.824;11.422;2023-07-13T00:26:17;15.82;;;7.22;;
17052;SDS011;8643;48.824;11.422;2023-07-13T00:28:47;16.50;;;7.85;;
17052;SDS011;8643;48.824;11.422;2023-07-13T00:31:16;17.42;;;7.50;;
17052;SDS011;8643;48.824;11.422;2023-07-13T00:33:46;12.65;;;7.07;;
17052;SDS011;8643;48.824;11.422;2023-07-13T00:36:17;12.93;;;7.03;;
17052;SDS011;8643;48.824;11.422;2023-07-13T00:38:49;10.98;;;6.90;;
17052;SDS011;8643;48.824;11.422;2023-07-13T00:41:18;14.60;;;7.85;;
17052;SDS011;8643;48.824;11.422;2023-07-13T00:43:47;15.32;;;7.40;;
17052;SDS011;8643;48.824;11.422;2023-07-13T00:46:18;21.63;;;8.63;;
17052;SDS011;8643;48.824;11.422;2023-07-13T00:48:53;14.48;;;7.90;;
17052;SDS011;8643;48.824;11.422;2023-07-13T00:51:27;18.70;;;8.95;;
17052;SDS011;8643;48.824;11.422;2023-07-13T00:54:03;14.52;;;8.27;;
17052;SDS011;8643;48.824;11.422;2023-07-13T00:56:34;15.70;;;8.70;;
17052;SDS011;8643;48.824;11.422;2023-07-13T00:59:05;18.13;;;9.02;;
17052;SDS011;8643;48.824;11.422;2023-07-13T01:01:38;18.00;;;7.85;;
17052;SDS011;8643;48.824;11.422;2023-07-13T01:04:08;23.02;;;9.73;;
17052;SDS011;8643;48.824;11.422;2023-07-13T01:06:39;22.45;;;10.52;;
17052;SDS011;8643;48.824;11.422;2023-07-13T01:09:11;15.48;;;9.18;;
17052;SDS011;8643;48.824;11.422;2023-07-13T01:11:40;21.70;;;10.70;;
17052;SDS011;8643;48.824;11.422;2023-07-13T01:14:12;28.25;;;10.82;;
17052;SDS011;8643;48.824;11.422;2023-07-13T01:16:42;25.60;;;11.18;;
17052;SDS011;8643;48.824;11.422;2023-07-13T01:19:18;23.67;;;10.23;;
17052;SDS011;8643;48.824;11.422;2023-07-13T01:22:05;31.08;;;11.27;;
17052;SDS011;8643;48.824;11.422;2023-07-13T01:24:42;23.85;;;10.40;;
17052;SDS011;8643;48.824;11.422;2023-07-13T01:27:16;29.30;;;12.27;;
17052;SDS011;8643;48.824;11.422;2023-07-13T01:29:49;21.02;;;10.63;;
17052;SDS011;8643;48.824;11.422;2023-07-13T01:32:20;29.83;;;12.00;;
17052;SDS011;8643;48.824;11.422;2023-07-13T01:34:54;31.88;;;13.25;;
17052;SDS011;8643;48.824;11.422;2023-07-13T01:37:26;25.38;;;12.23;;
17052;SDS011;8643;48.824;11.422;2023-07-13T01:39:55;25.45;;;11.80;;
17052;SDS011;8643;48.824;11.422;2023-07-13T01:42:24;28.08;;;12.45;;
17052;SDS011;8643;48.824;11.422;2023-07-13T01:44:52;20.58;;;11.52;;
17052;SDS011;8643;48.824;11.422;2023-07-13T01:47:22;25.58;;;11.40;;
17052;SDS011;8643;48.824;11.422;2023-07-13T01:49:52;27.33;;;11.43;;
17052;SDS011;8643;48.824;11.422;2023-07-13T01:52:21;22.50;;;11.00;;
17052;SDS011;8643;48.824;11.422;2023-07-13T01:54:51;23.15;;;10.65;;
17052;SDS011;8643;48.824;11.422;2023-07-13T01:57:19;23.70;;;11.18;;
17052;SDS011;8643;48.824;11.422;2023-07-13T01:59:48;27.48;;;11.77;;
17052;SDS011;8643;48.824;11.422;2023-07-13T02:02:16;24.77;;;12.00;;
17052;SDS011;8643;48.824;11.422;2023-07-13T02:04:46;23.42;;;11.10;;
17052;SDS011;8643;48.824;11.422;2023-07-13T02:07:14;26.17;;;12.05;;
17052;SDS011;8643;48.824;11.422;2023-07-13T02:09:43;27.15;;;13.35;;
17052;SDS011;8643;48.824;11.422;2023-07-13T02:12:13;29.77;;;13.70;;
17052;SDS011;8643;48.824;11.422;2023-07-13T02:14:41;29.00;;;13.10;;
17052;SDS011;8643;48.824;11.422;2023-07-13T02:17:10;28.63;;;12.38;;
17052;SDS011;8643;48.824;11.422;2023-07-13T02:19:38;24.50;;;12.90;;
17052;SDS011;8643;48.824;11.422;2023-07-13T02:22:07;25.85;;;12.80;;
17052;SDS011;8643;48.824;11.422;2023-07-13T02:24:35;26.98;;;12.60;;
17052;SDS011;8643;48.824;11.422;2023-07-13T02:27:04;24.65;;;12.70;;
17052;SDS011;8643;48.824;11.422;2023-07-13T02:29:35;31.38;;;14.25;;
17052;SDS011;8643;48.824;11.422;2023-07-13T02:32:03;44.55;;;14.32;;
17052;SDS011;8643;48.824;11.422;2023-07-13T02:34:33;47.13;;;16.20;;
17052;SDS011;8643;48.824;11.422;2023-07-13T02:37:03;41.75;;;15.75;;
17052;SDS011;8643;48.824;11.422;2023-07-13T02:39:33;34.10;;;15.15;;
17052;SDS011;8643;48.824;11.422;2023-07-13T02:42:02;46.38;;;16.67;;
17052;SDS011;8643;48.824;11.422;2023-07-13T02:44:32;35.70;;;14.63;;
17052;SDS011;8643;48.824;11.422;2023-07-13T02:47:02;36.67;;;15.10;;
17052;SDS011;8643;48.824;11.422;2023-07-13T02:49:30;36.25;;;15.75;;
17052;SDS011;8643;48.824;11.422;2023-07-13T02:51:58;31.50;;;15.00;;
17052;SDS011;8643;48.824;11.422;2023-07-13T02:54:27;30.60;;;13.48;;
17052;SDS011;8643;48.824;11.422;2023-07-13T02:56:56;29.67;;;13.88;;
17052;SDS011;8643;48.824;11.422;2023-07-13T02:59:24;36.00;;;13.50;;
17052;SDS011;8643;48.824;11.422;2023-07-13T03:01:53;22.75;;;11.68;;
17052;SDS011;8643;48.824;11.422;2023-07-13T03:04:23;33.95;;;12.88;;
17052;SDS011;8643;48.824;11.422;2023-07-13T03:06:51;21.55;;;11.88;;
17052;SDS011;8643;48.824;11.422;2023-07-13T03:09:30;23.45;;;11.52;;
17052;SDS011;8643;48.824;11.422;2023-07-13T03:12:02;20.80;;;11.30;;
17052;SDS011;8643;48.824;11.422;2023-07-13T03:14:32;22.35;;;11.77;;
17052;SDS011;8643;48.824;11.422;2023-07-13T03:17:03;32.40;;;13.68;;
17052;SDS011;8643;48.824;11.422;2023-07-13T03:19:37;30.63;;;12.50;;
17052;SDS011;8643;48.824;11.422;2023-07-13T03:22:06;30.58;;;12.45;;
17052;SDS011;8643;48.824;11.422;2023-07-13T03:24:36;32.38;;;13.25;;
17052;SDS011;8643;48.824;11.422;2023-07-13T03:27:06;31.73;;;12.43;;
17052;SDS011;8643;48.824;11.422;2023-07-13T03:29:38;32.05;;;12.90;;
17052;SDS011;8643;48.824;11.422;2023-07-13T03:32:07;32.95;;;14.32;;
17052;SDS011;8643;48.824;11.422;2023-07-13T03:34:38;30.85;;;12.38;;
17052;SDS011;8643;48.824;11.422;2023-07-13T03:37:07;55.55;;;16.50;;
17052;SDS011;8643;48.824;11.422;2023-07-13T03:39:36;38.97;;;14.38;;
17052;SDS011;8643;48.824;11.422;2023-07-13T03:42:05;39.38;;;15.13;;
17052;SDS011;8643;48.824;11.422;2023-07-13T03:44:34;31.10;;;15.10;;
17052;SDS011;8643;48.824;11.422;2023-07-13T03:47:03;35.92;;;14.13;;
17052;SDS011;8643;48.824;11.422;2023-07-13T03:49:35;39.53;;;15.77;;
17052;SDS011;8643;48.824;11.422;2023-07-13T03:52:05;37.25;;;14.98;;
17052;SDS011;8643;48.824;11.422;2023-07-13T03:54:34;48.38;;;15.48;;
17052;SDS011;8643;48.824;11.422;2023-07-13T03:57:02;61.17;;;18.15;;
17052;SDS011;8643;48.824;11.422;2023-07-13T03:59:34;37.55;;;16.10;;
17052;SDS011;8643;48.824;11.422;2023-07-13T04:02:03;53.00;;;16.70;;
17052;SDS011;8643;48.824;11.422;2023-07-13T04:04:33;50.72;;;16.80;;
17052;SDS011;8643;48.824;11.422;2023-07-13T04:07:02;51.08;;;17.17;;
17052;SDS011;8643;48.824;11.422;2023-07-13T04:09:32;44.45;;;17.45;;
17052;SDS011;8643;48.824;11.422;2023-07-13T04:12:00;46.90;;;17.48;;
17052;SDS011;8643;48.824;11.422;2023-07-13T04:14:29;57.40;;;18.30;;
17052;SDS011;8643;48.824;11.422;2023-07-13T04:16:57;38.83;;;16.02;;
17052;SDS011;8643;48.824;11.422;2023-07-13T04:19:26;49.28;;;18.13;;
17052;SDS011;8643;48.824;11.422;2023-07-13T04:21:54;42.28;;;16.00;;
17052;SDS011;8643;48.824;11.422;2023-07-13T04:24:23;43.22;;;16.52;;
17052;SDS011;8643;48.824;11.422;2023-07-13T04:26:54;44.35;;;16.75;;
17052;SDS011;8643;48.824;11.422;2023-07-13T04:29:25;40.03;;;14.70;;
17052;SDS011;8643;48.824;11.422;2023-07-13T04:31:54;38.15;;;15.68;;
17052;SDS011;8643;48.824;11.422;2023-07-13T04:34:22;35.97;;;14.13;;
17052;SDS011;8643;48.824;11.422;2023-07-13T04:36:51;29.15;;;13.50;;
17052;SDS011;8643;48.824;11.422;2023-07-13T04:39:20;36.35;;;16.00;;
17052;SDS011;8643;48.824;11.422;2023-07-13T04:41:48;26.08;;;14.10;;
17052;SDS011;8643;48.824;11.422;2023-07-13T04:44:18;42.75;;;16.13;;
17052;SDS011;8643;48.824;11.422;2023-07-13T04:46:46;35.17;;;12.70;;
17052;SDS011;8643;48.824;11.422;2023-07-13T04:49:15;21.65;;;11.45;;
17052;SDS011;8643;48.824;11.422;2023-07-13T04:51:43;35.30;;;12.90;;
17052;SDS011;8643;48.824;11.422;2023-07-13T04:54:11;34.78;;;11.77;;
17052;SDS011;8643;48.824;11.422;2023-07-13T04:56:40;22.08;;;10.90;;
17052;SDS011;8643;48.824;11.422;2023-07-13T04:59:09;24.50;;;10.80;;
17052;SDS011;8643;48.824;11.422;2023-07-13T05:01:39;25.98;;;9.85;;
17052;SDS011;8643;48.824;11.422;2023-07-13T05:04:08;21.58;;;7.75;;
17052;SDS011;8643;48.824;11.422;2023-07-13T05:06:36;20.35;;;7.00;;
17052;SDS011;8643;48.824;11.422;2023-07-13T05:09:05;21.85;;;7.72;;
17052;SDS011;8643;48.824;11.422;2023-07-13T05:11:34;25.83;;;7.85;;
17052;SDS011;8643;48.824;11.422;2023-07-13T05:14:03;20.75;;;6.78;;
17052;SDS011;8643;48.824;11.422;2023-07-13T05:16:31;21.63;;;7.40;;
17052;SDS011;8643;48.824;11.422;2023-07-13T05:19:01;11.60;;;6.00;;
17052;SDS011;8643;48.824;11.422;2023-07-13T05:21:30;18.98;;;6.40;;
17052;SDS011;8643;48.824;11.422;2023-07-13T05:23:58;17.23;;;5.18;;
17052;SDS011;8643;48.824;11.422;2023-07-13T05:26:44;15.73;;;5.50;;
17052;SDS011;8643;48.824;11.422;2023-07-13T05:29:13;13.10;;;5.97;;
17052;SDS011;8643;48.824;11.422;2023-07-13T05:31:41;14.15;;;5.45;;
17052;SDS011;8643;48.824;11.422;2023-07-13T05:34:13;12.00;;;4.50;;
17052;SDS011;8643;48.824;11.422;2023-07-13T05:36:42;6.47;;;3.97;;
17052;SDS011;8643;48.824;11.422;2023-07-13T05:39:11;12.88;;;4.38;;
17052;SDS011;8643;48.824;11.422;2023-07-13T05:41:39;9.63;;;4.78;;
17052;SDS011;8643;48.824;11.422;2023-07-13T05:44:07;15.00;;;4.93;;
17052;SDS011;8643;48.824;11.422;2023-07-13T05:46:36;7.95;;;4.20;;
17052;SDS011;8643;48.824;11.422;2023-07-13T05:49:05;7.35;;;4.00;;
17052;SDS011;8643;48.824;11.422;2023-07-13T05:51:34;11.35;;;4.53;;
17052;SDS011;8643;48.824;11.422;2023-07-13T05:54:03;12.65;;;4.30;;
17052;SDS011;8643;48.824;11.422;2023-07-13T05:56:32;13.20;;;5.40;;
17052;SDS011;8643;48.824;11.422;2023-07-13T05:59:00;8.75;;;4.47;;
17052;SDS011;8643;48.824;11.422;2023-07-13T06:01:29;13.07;;;4.60;;
17052;SDS011;8643;48.824;11.422;2023-07-13T06:03:58;10.88;;;4.22;;
17052;SDS011;8643;48.824;11.422;2023-07-13T06:06:27;8.20;;;4.03;;
17052;SDS011;8643;48.824;11.422;2023-07-13T06:08:57;9.25;;;3.72;;
17052;SDS011;8643;48.824;11.422;2023-07-13T06:11:26;7.18;;;3.45;;
17052;SDS011;8643;48.824;11.422;2023-07-13T06:13:56;8.02;;;3.92;;
17052;SDS011;8643;48.824;11.422;2023-07-13T06:16:25;9.32;;;3.63;;
17052;SDS011;8643;48.824;11.422;2023-07-13T06:18:54;6.07;;;3.20;;
17052;SDS011;8643;48.824;11.422;2023-07-13T06:21:22;10.35;;;3.47;;
17052;SDS011;8643;48.824;11.422;2023-07-13T06:23:52;8.57;;;2.80;;
17052;SDS011;8643;48.824;11.422;2023-07-13T06:26:22;11.73;;;2.67;;
17052;SDS011;8643;48.824;11.422;2023-07-13T06:28:51;7.47;;;2.92;;
17052;SDS011;8643;48.824;11.422;2023-07-13T06:31:20;8.65;;;3.20;;
17052;SDS011;8643;48.824;11.422;2023-07-13T06:33:48;6.45;;;2.80;;
17052;SDS011;8643;48.824;11.422;2023-07-13T06:36:17;6.57;;;2.67;;
17052;SDS011;8643;48.824;11.422;2023-07-13T06:38:45;4.35;;;2.42;;
17052;SDS011;8643;48.824;11.422;2023-07-13T06:41:14;4.25;;;2.22;;
17052;SDS011;8643;48.824;11.422;2023-07-13T06:43:44;5.60;;;2.30;;
17052;SDS011;8643;48.824;11.422;2023-07-13T06:46:12;5.85;;;2.30;;
17052;SDS011;8643;48.824;11.422;2023-07-13T06:48:41;6.88;;;2.42;;
17052;SDS011;8643;48.824;11.422;2023-07-13T06:51:09;7.35;;;2.55;;
17052;SDS011;8643;48.824;11.422;2023-07-13T06:53:38;8.95;;;2.25;;
17052;SDS011;8643;48.824;11.422;2023-07-13T06:56:09;5.85;;;2.08;;
17052;SDS011;8643;48.824;11.422;2023-07-13T06:58:37;9.52;;;2.38;;
17052;SDS011;8643;48.824;11.422;2023-07-13T07:01:07;6.03;;;2.35;;
17052;SDS011;8643;48.824;11.422;2023-07-13T07:03:37;5.60;;;2.30;;
17052;SDS011;8643;48.824;11.422;2023-07-13T07:06:08;7.18;;;2.25;;
17052;SDS011;8643;48.824;11.422;2023-07-13T07:08:44;6.32;;;2.22;;
17052;SDS011;8643;48.824;11.422;2023-07-13T07:11:13;5.85;;;2.25;;
17052;SDS011;8643;48.824;11.422;2023-07-13T07:13:45;6.40;;;2.42;;
17052;SDS011;8643;48.824;11.422;2023-07-13T07:16:16;2.90;;;2.20;;
17052;SDS011;8643;48.824;11.422;2023-07-13T07:18:45;3.40;;;1.98;;
17052;SDS011;8643;48.824;11.422;2023-07-13T07:21:14;7.15;;;2.38;;
17052;SDS011;8643;48.824;11.422;2023-07-13T07:23:43;8.45;;;2.50;;
17052;SDS011;8643;48.824;11.422;2023-07-13T07:26:12;5.30;;;2.10;;
17052;SDS011;8643;48.824;11.422;2023-07-13T07:28:40;6.00;;;2.13;;
17052;SDS011;8643;48.824;11.422;2023-07-13T07:31:15;4.28;;;1.77;;
17052;SDS011;8643;48.824;11.422;2023-07-13T07:33:47;5.82;;;2.50;;
17052;SDS011;8643;48.824;11.422;2023-07-13T07:36:17;3.33;;;2.20;;
17052;SDS011;8643;48.824;11.422;2023-07-13T07:38:48;8.55;;;2.30;;
17052;SDS011;8643;48.824;11.422;2023-07-13T07:41:16;6.40;;;2.15;;
17052;SDS011;8643;48.824;11.422;2023-07-13T07:43:47;9.35;;;1.70;;
17052;SDS011;8643;48.824;11.422;2023-07-13T07:46:17;9.07;;;2.10;;
17052;SDS011;8643;48.824;11.422;2023-07-13T07:48:45;7.40;;;1.65;;
17052;SDS011;8643;48.824;11.422;2023-07-13T07:51:14;4.35;;;1.83;;
17052;SDS011;8643;48.824;11.422;2023-07-13T07:53:43;10.00;;;2.00;;
17052;SDS011;8643;48.824;11.422;2023-07-13T07:56:11;7.30;;;1.80;;
17052;SDS011;8643;48.824;11.422;2023-07-13T07:58:42;3.72;;;2.20;;
17052;SDS011;8643;48.824;11.422;2023-07-13T08:01:14;6.93;;;1.92;;
17052;SDS011;8643;48.824;11.422;2023-07-13T08:03:47;5.13;;;1.85;;
17052;SDS011;8643;48.824;11.422;2023-07-13T08:06:18;5.00;;;1.90;;
17052;SDS011;8643;48.824;11.422;2023-07-13T08:08:51;5.07;;;2.00;;
17052;SDS011;8643;48.824;11.422;2023-07-13T08:11:19;4.88;;;2.05;;
17052;SDS011;8643;48.824;11.422;2023-07-13T08:13:52;4.53;;;2.40;;
17052;SDS011;8643;48.824;11.422;2023-07-13T08:16:21;5.32;;;2.40;;
17052;SDS011;8643;48.824;11.422;2023-07-13T08:18:52;6.78;;;2.38;;
17052;SDS011;8643;48.824;11.422;2023-07-13T08:21:21;8.23;;;1.90;;
17052;SDS011;8643;48.824;11.422;2023-07-13T08:23:49;7.60;;;2.08;;
17052;SDS011;8643;48.824;11.422;2023-07-13T08:26:18;7.28;;;2.35;;
17052;SDS011;8643;48.824;11.422;2023-07-13T08:28:48;5.18;;;1.92;;
17052;SDS011;8643;48.824;11.422;2023-07-13T08:31:16;5.38;;;1.80;;
17052;SDS011;8643;48.824;11.422;2023-07-13T08:33:44;6.80;;;1.60;;
17052;SDS011;8643;48.824;11.422;2023-07-13T08:36:14;4.60;;;1.52;;
17052;SDS011;8643;48.824;11.422;2023-07-13T08:38:42;4.05;;;1.42;;
17052;SDS011;8643;48.824;11.422;2023-07-13T08:41:11;3.33;;;1.55;;
17052;SDS011;8643;48.824;11.422;2023-07-13T08:43:43;8.00;;;1.55;;
17052;SDS011;8643;48.824;11.422;2023-07-13T08:46:17;3.67;;;1.70;;
17052;SDS011;8643;48.824;11.422;2023-07-13T08:48:56;6.93;;;2.00;;
17052;SDS011;8643;48.824;11.422;2023-07-13T08:51:33;3.47;;;1.60;;
17052;SDS011;8643;48.824;11.422;2023-07-13T08:54:12;4.85;;;1.40;;
17052;SDS011;8643;48.824;11.422;2023-07-13T08:56:54;3.78;;;1.23;;
17052;SDS011;8643;48.824;11.422;2023-07-13T08:59:27;5.32;;;1.23;;
17052;SDS011;8643;48.824;11.422;2023-07-13T09:02:04;4.18;;;1.27;;
17052;SDS011;8643;48.824;11.422;2023-07-13T09:04:54;3.05;;;1.13;;
17052;SDS011;8643;48.824;11.422;2023-07-13T09:07:38;5.20;;;1.10;;
17052;SDS011;8643;48.824;11.422;2023-07-13T09:10:26;3.53;;;1.30;;
17052;SDS011;8643;48.824;11.422;2023-07-13T09:13:00;4.47;;;1.40;;
17052;SDS011;8643;48.824;11.422;2023-07-13T09:15:47;7.18;;;1.35;;
17052;SDS011;8643;48.824;11.422;2023-07-13T09:18:19;2.28;;;1.20;;
17052;SDS011;8643;48.824;11.422;2023-07-13T09:20:57;5.00;;;1.52;;
17052;SDS011;8643;48.824;11.422;2023-07-13T09:23:34;5.07;;;1.25;;
17052;SDS011;8643;48.824;11.422;2023-07-13T09:26:05;6.35;;;1.40;;
17052;SDS011;8643;48.824;11.422;2023-07-13T09:28:42;2.75;;;1.30;;
17052;SDS011;8643;48.824;11.422;2023-07-13T09:31:14;5.47;;;1.23;;
17052;SDS011;8643;48.824;11.422;2023-07-13T09:33:48;5.20;;;1.30;;
17052;SDS011;8643;48.824;11.422;2023-07-13T09:36:18;3.88;;;1.60;;
17052;SDS011;8643;48.824;11.422;2023-07-13T09:38:55;3.42;;;1.30;;
17052;SDS011;8643;48.824;11.422;2023-07-13T09:41:33;2.42;;;1.40;;
17052;SDS011;8643;48.824;11.422;2023-07-13T09:44:17;2.75;;;1.30;;
17052;SDS011;8643;48.824;11.422;2023-07-13T09:46:57;4.60;;;1.30;;
17052;SDS011;8643;48.824;11.422;2023-07-13T09:49:27;5.40;;;1.45;;
17052;SDS011;8643;48.824;11.422;2023-07-13T09:52:02;4.53;;;1.30;;
17052;SDS011;8643;48.824;11.422;2023-07-13T09:54:35;14.02;;;1.30;;
17052;SDS011;8643;48.824;11.422;2023-07-13T09:57:12;2.45;;;1.15;;
17052;SDS011;8643;48.824;11.422;2023-07-13T09:59:44;4.10;;;1.50;;
17052;SDS011;8643;48.824;11.422;2023-07-13T10:02:23;6.40;;;1.40;;
17052;SDS011;8643;48.824;11.422;2023-07-13T10:04:56;9.75;;;1.35;;
17052;SDS011;8643;48.824;11.422;2023-07-13T10:07:27;4.97;;;1.10;;
17052;SDS011;8643;48.824;11.422;2023-07-13T10:09:57;12.60;;;1.88;;
17052;SDS011;8643;48.824;11.422;2023-07-13T10:12:29;4.85;;;1.55;;
17052;SDS011;8643;48.824;11.422;2023-07-13T10:15:06;3.28;;;1.30;;
17052;SDS011;8643;48.824;11.422;2023-07-13T10:17:50;4.57;;;1.40;;
17052;SDS011;8643;48.824;11.422;2023-07-13T10:20:22;6.00;;;1.25;;
17052;SDS011;8643;48.824;11.422;2023-07-13T10:22:53;3.33;;;1.30;;
17052;SDS011;8643;48.824;11.422;2023-07-13T10:25:28;3.55;;;1.20;;
17052;SDS011;8643;48.824;11.422;2023-07-13T10:28:02;3.05;;;1.30;;
17052;SDS011;8643;48.824;11.422;2023-07-13T10:30:39;2.80;;;1.60;;
17052;SDS011;8643;48.824;11.422;2023-07-13T10:33:12;5.95;;;1.25;;
17052;SDS011;8643;48.824;11.422;2023-07-13T10:35:43;3.53;;;1.45;;
17052;SDS011;8643;48.824;11.422;2023-07-13T10:38:14;5.80;;;1.30;;
17052;SDS011;8643;48.824;11.422;2023-07-13T10:40:52;3.88;;;1.33;;
17052;SDS011;8643;48.824;11.422;2023-07-13T10:43:32;7.70;;;1.35;;
17052;SDS011;8643;48.824;11.422;2023-07-13T10:46:04;3.58;;;1.30;;
17052;SDS011;8643;48.824;11.422;2023-07-13T10:48:37;2.38;;;1.25;;
17052;SDS011;8643;48.824;11.422;2023-07-13T10:51:08;4.93;;;1.17;;
17052;SDS011;8643;48.824;11.422;2023-07-13T10:53:42;2.88;;;1.38;;
17052;SDS011;8643;48.824;11.422;2023-07-13T10:56:22;3.28;;;1.70;;
17052;SDS011;8643;48.824;11.422;2023-07-13T10:59:02;5.03;;;1.60;;
17052;SDS011;8643;48.824;11.422;2023-07-13T11:01:52;5.90;;;1.50;;
17052;SDS011;8643;48.824;11.422;2023-07-13T11:04:25;3.97;;;1.23;;
17052;SDS011;8643;48.824;11.422;2023-07-13T11:07:10;2.80;;;1.33;;
17052;SDS011;8643;48.824;11.422;2023-07-13T11:09:49;3.35;;;1.20;;
17052;SDS011;8643;48.824;11.422;2023-07-13T11:12:28;2.60;;;1.30;;
17052;SDS011;8643;48.824;11.422;2023-07-13T11:15:32;5.75;;;1.42;;
17052;SDS011;8643;48.824;11.422;2023-07-13T11:18:20;4.05;;;1.40;;
17052;SDS011;8643;48.824;11.422;2023-07-13T11:20:51;4.85;;;1.38;;
17052;SDS011;8643;48.824;11.422;2023-07-13T11:24:01;5.30;;;1.60;;
17052;SDS011;8643;48.824;11.422;2023-07-13T11:26:43;3.08;;;1.33;;
17052;SDS011;8643;48.824;11.422;2023-07-13T11:29:24;2.97;;;1.23;;
17052;SDS011;8643;48.824;11.422;2023-07-13T11:32:10;2.83;;;1.42;;
17052;SDS011;8643;48.824;11.422;2023-07-13T11:34:53;3.38;;;1.33;;
17052;SDS011;8643;48.824;11.422;2023-07-13T11:37:22;2.80;;;1.33;;
17052;SDS011;8643;48.824;11.422;2023-07-13T11:39:52;4.75;;;1.73;;
17052;SDS011;8643;48.824;11.422;2023-07-13T11:42:21;3.33;;;1.45;;
17052;SDS011;8643;48.824;11.422;2023-07-13T11:44:52;2.70;;;1.40;;
17052;SDS011;8643;48.824;11.422;2023-07-13T11:47:39;4.47;;;1.52;;
17052;SDS011;8643;48.824;11.422;2023-07-13T11:50:16;4.03;;;1.27;;
17052;SDS011;8643;48.824;11.422;2023-07-13T11:52:48;2.63;;;1.23;;
17052;SDS011;8643;48.824;11.422;2023-07-13T11:55:21;5.93;;;1.67;;
17052;SDS011;8643;48.824;11.422;2023-07-13T11:57:52;3.42;;;1.33;;
17052;SDS011;8643;48.824;11.422;2023-07-13T12:00:29;3.00;;;1.45;;
17052;SDS011;8643;48.824;11.422;2023-07-13T12:03:01;3.13;;;1.38;;
17052;SDS011;8643;48.824;11.422;2023-07-13T12:05:32;5.65;;;1.30;;
17052;SDS011;8643;48.824;11.422;2023-07-13T12:08:07;2.30;;;1.35;;
17052;SDS011;8643;48.824;11.422;2023-07-13T12:10:55;5.07;;;1.20;;
17052;SDS011;8643;48.824;11.422;2023-07-13T12:13:27;5.97;;;1.30;;
17052;SDS011;8643;48.824;11.422;2023-07-13T12:15:58;4.25;;;1.38;;
17052;SDS011;8643;48.824;11.422;2023-07-13T12:18:28;5.10;;;1.58;;
17052;SDS011;8643;48.824;11.422;2023-07-13T12:21:00;2.38;;;1.30;;
17052;SDS011;8643;48.824;11.422;2023-07-13T12:23:30;3.80;;;1.38;;
17052;SDS011;8643;48.824;11.422;2023-07-13T12:26:03;2.85;;;1.40;;
17052;SDS011;8643;48.824;11.422;2023-07-13T12:28:36;2.83;;;1.30;;
17052;SDS011;8643;48.824;11.422;2023-07-13T12:31:18;4.45;;;1.30;;
17052;SDS011;8643;48.824;11.422;2023-07-13T12:33:58;4.78;;;1.30;;
17052;SDS011;8643;48.824;11.422;2023-07-13T12:36:29;2.60;;;1.45;;
17052;SDS011;8643;48.824;11.422;2023-07-13T12:39:03;2.83;;;1.10;;
17052;SDS011;8643;48.824;11.422;2023-07-13T12:41:40;5.00;;;1.40;;
17052;SDS011;8643;48.824;11.422;2023-07-13T12:44:13;3.88;;;1.30;;
17052;SDS011;8643;48.824;11.422;2023-07-13T12:46:55;2.33;;;1.20;;
17052;SDS011;8643;48.824;11.422;2023-07-13T12:49:28;4.90;;;1.17;;
17052;SDS011;8643;48.824;11.422;2023-07-13T12:52:03;5.93;;;1.30;;
17052;SDS011;8643;48.824;11.422;2023-07-13T12:54:42;4.65;;;1.50;;
17052;SDS011;8643;48.824;11.422;2023-07-13T12:57:32;3.08;;;1.48;;
17052;SDS011;8643;48.824;11.422;2023-07-13T13:00:11;5.93;;;1.38;;
17052;SDS011;8643;48.824;11.422;2023-07-13T13:02:54;2.40;;;1.05;;
17052;SDS011;8643;48.824;11.422;2023-07-13T13:05:27;2.58;;;1.40;;
17052;SDS011;8643;48.824;11.422;2023-07-13T13:07:57;2.22;;;1.20;;
17052;SDS011;8643;48.824;11.422;2023-07-13T13:10:26;2.78;;;1.50;;
17052;SDS011;8643;48.824;11.422;2023-07-13T13:12:55;2.72;;;1.23;;
17052;SDS011;8643;48.824;11.422;2023-07-13T13:15:24;5.22;;;1.33;;
17052;SDS011;8643;48.824;11.422;2023-07-13T13:17:54;3.88;;;1.30;;
17052;SDS011;8643;48.824;11.422;2023-07-13T13:20:25;4.38;;;1.40;;
17052;SDS011;8643;48.824;11.422;2023-07-13T13:22:54;7.65;;;1.42;;
17052;SDS011;8643;48.824;11.422;2023-07-13T13:25:22;7.38;;;1.33;;
17052;SDS011;8643;48.824;11.422;2023-07-13T13:27:51;3.97;;;1.30;;
17052;SDS011;8643;48.824;11.422;2023-07-13T13:30:20;2.75;;;1.17;;
17052;SDS011;8643;48.824;11.422;2023-07-13T13:32:48;4.65;;;1.30;;
17052;SDS011;8643;48.824;11.422;2023-07-13T13:35:19;5.70;;;1.40;;
17052;SDS011;8643;48.824;11.422;2023-07-13T13:37:48;3.92;;;1.27;;
17052;SDS011;8643;48.824;11.422;2023-07-13T13:40:18;3.20;;;1.30;;
17052;SDS011;8643;48.824;11.422;2023-07-13T13:42:50;4.00;;;1.55;;
17052;SDS011;8643;48.824;11.422;2023-07-13T13:45:20;3.70;;;1.33;;
17052;SDS011;8643;48.824;11.422;2023-07-13T13:47:50;2.60;;;1.20;;
17052;SDS011;8643;48.824;11.422;2023-07-13T13:50:21;2.22;;;1.05;;
17052;SDS011;8643;48.824;11.422;2023-07-13T13:52:50;3.72;;;1.05;;
17052;SDS011;8643;48.824;11.422;2023-07-13T13:55:19;2.70;;;1.27;;
17052;SDS011;8643;48.824;11.422;2023-07-13T13:57:50;4.10;;;1.23;;
17052;SDS011;8643;48.824;11.422;2023-07-13T14:00:20;2.88;;;1.35;;
17052;SDS011;8643;48.824;11.422;2023-07-13T14:02:48;5.03;;;1.30;;
17052;SDS011;8643;48.824;11.422;2023-07-13T14:05:20;3.78;;;1.45;;
17052;SDS011;8643;48.824;11.422;2023-07-13T14:07:52;5.45;;;1.35;;
17052;SDS011;8643;48.824;11.422;2023-07-13T14:10:21;3.53;;;1.20;;
17052;SDS011;8643;48.824;11.422;2023-07-13T14:12:51;3.05;;;1.30;;
17052;SDS011;8643;48.824;11.422;2023-07-13T14:15:25;12.82;;;1.55;;
17052;SDS011;8643;48.824;11.422;2023-07-13T14:17:57;2.00;;;1.40;;
17052;SDS011;8643;48.824;11.422;2023-07-13T14:20:27;3.85;;;1.20;;
17052;SDS011;8643;48.824;11.422;2023-07-13T14:22:56;1.95;;;1.00;;
17052;SDS011;8643;48.824;11.422;2023-07-13T14:25:25;2.08;;;1.20;;
17052;SDS011;8643;48.824;11.422;2023-07-13T14:27:56;4.32;;;1.40;;
17052;SDS011;8643;48.824;11.422;2023-07-13T14:30:27;3.30;;;1.30;;
17052;SDS011;8643;48.824;11.422;2023-07-13T14:32:55;2.75;;;1.27;;
17052;SDS011;8643;48.824;11.422;2023-07-13T14:35:24;4.00;;;1.35;;
17052;SDS011;8643;48.824;11.422;2023-07-13T14:37:54;3.08;;;1.40;;
17052;SDS011;8643;48.824;11.422;2023-07-13T14:40:24;2.80;;;1.52;;
17052;SDS011;8643;48.824;11.422;2023-07-13T14:42:58;3.00;;;1.42;;
17052;SDS011;8643;48.824;11.422;2023-07-13T14:45:26;2.90;;;1.20;;
17052;SDS011;8643;48.824;11.422;2023-07-13T14:47:58;1.35;;;1.00;;
17052;SDS011;8643;48.824;11.422;2023-07-13T14:50:29;4.65;;;1.27;;
17052;SDS011;8643;48.824;11.422;2023-07-13T14:53:01;2.28;;;1.30;;
17052;SDS011;8643;48.824;11.422;2023-07-13T14:55:30;3.15;;;1.35;;
17052;SDS011;8643;48.824;11.422;2023-07-13T14:57:58;2.65;;;1.15;;
17052;SDS011;8643;48.824;11.422;2023-07-13T15:00:26;3.50;;;1.23;;
17052;SDS011;8643;48.824;11.422;2023-07-13T15:02:56;2.25;;;1.13;;
17052;SDS011;8643;48.824;11.422;2023-07-13T15:05:29;4.05;;;1.20;;